Time;durP1;ratioP1;P1;durP2;ratioP2;P2;SDS_P1;SDS_P2;PMS_P1;PMS_P2;Temp;Humidity;BMP_temperature;BMP_pressure;BME280_temperature;BME280_humidity;BME280_pressure;Samples;Min_cycle;Max_cycle;Signal;HPM_P1;HPM_P2
2021/11/13 00:07:59;;;;;;;5.68;4.32;;;;;;;17.51;63.86;100827.00;5047327;24;20572;-81
2021/11/13 00:11:10;;;;;;;6.07;4.53;;;;;;;17.51;63.96;100825.28;4834303;29;20026;-82
2021/11/13 00:13:52;;;;;;;5.40;4.38;;;;;;;17.50;63.97;100815.72;4850872;29;20039;-82
2021/11/13 00:16:23;;;;;;;6.13;4.57;;;;;;;17.51;63.89;100822.69;4850821;29;20010;-82
2021/11/13 00:18:49;;;;;;;4.88;4.38;;;;;;;17.50;63.99;100817.47;4835855;29;20031;-82
2021/11/13 00:21:38;;;;;;;6.35;4.47;;;;;;;17.51;63.94;100806.19;4842066;29;20034;-81
2021/11/13 00:27:34;;;;;;;5.00;4.28;;;;;;;17.51;64.08;100808.78;4853097;29;20042;-82
2021/11/13 00:30:41;;;;;;;5.57;4.40;;;;;;;17.48;64.11;100789.75;4837080;29;20042;-83
2021/11/13 00:33:25;;;;;;;5.93;4.43;;;;;;;17.50;64.08;100809.66;4851871;29;20055;-82
2021/11/13 00:35:52;;;;;;;;;;;;;;;17.50;63.92;100804.47;4852317;29;20069;-83
2021/11/13 00:42:05;;;;;;;5.47;4.35;;;;;;;17.51;64.04;100795.78;4853012;29;20037;-83
2021/11/13 03:35:27;;;;;;;4.07;2.80;;;;;;;17.44;64.33;100779.34;5089959;24;20063;-85
2021/11/13 03:47:03;;;;;;;4.05;2.40;;;;;;;17.45;64.42;100801.91;2986743;27;20066;-84
2021/11/13 03:53:25;;;;;;;3.30;2.05;;;;;;;17.43;64.58;100807.13;4848439;29;20029;-84
2021/11/13 03:59:43;;;;;;;3.63;2.15;;;;;;;17.44;64.33;100819.28;5239090;24;20050;-84
2021/11/13 04:31:03;;;;;;;4.07;2.13;;;;;;;17.42;64.49;100849.63;4822818;29;20074;-83
2021/11/13 04:37:22;;;;;;;3.35;1.63;;;;;;;17.41;64.35;100845.28;4796138;30;20050;-85
2021/11/13 04:47:00;;;;;;;3.47;1.58;;;;;;;17.41;64.51;100853.09;4813456;29;20097;-85
2021/11/13 04:50:13;;;;;;;3.33;1.88;;;;;;;17.40;64.44;100843.59;4772453;29;20043;-85
2021/11/13 04:56:43;;;;;;;3.78;1.73;;;;;;;17.39;64.16;100841.00;4777812;30;20058;-85
2021/11/13 05:21:20;;;;;;;2.20;1.58;;;;;;;17.41;64.33;100870.44;5190897;24;20046;-84
2021/11/13 05:27:25;;;;;;;4.13;1.80;;;;;;;17.40;64.50;100866.13;4848857;29;20073;-84
2021/11/13 05:30:27;;;;;;;2.80;1.80;;;;;;;17.38;64.42;100866.16;4848229;29;20018;-85
2021/11/13 05:33:05;;;;;;;2.95;1.73;;;;;;;17.39;64.54;100861.78;4848531;29;20045;-84
2021/11/13 05:36:12;;;;;;;4.32;1.70;;;;;;;17.39;64.29;100867.00;4832273;29;20037;-84
2021/11/13 05:48:54;;;;;;;2.97;1.65;;;;;;;17.38;64.34;100883.50;4811118;29;20047;-84
2021/11/13 05:51:33;;;;;;;3.63;1.60;;;;;;;17.37;64.07;100874.81;4796325;30;20047;-84
2021/11/13 05:54:23;;;;;;;3.28;1.88;;;;;;;17.37;64.27;100889.56;4802207;29;20052;-84
2021/11/13 05:57:13;;;;;;;4.03;1.30;;;;;;;17.38;64.48;100891.31;4810170;30;20011;-84
2021/11/13 06:13:11;;;;;;;3.38;1.55;;;;;;;17.37;64.32;100897.34;4829283;29;20038;-84
2021/11/13 06:15:43;;;;;;;2.63;1.17;;;;;;;17.38;64.20;100902.56;4810026;29;20027;-84
2021/11/13 06:21:51;;;;;;;3.20;1.30;;;;;;;17.37;64.32;100905.16;4809523;29;20070;-84
2021/11/13 06:25:13;;;;;;;3.00;1.60;;;;;;;17.37;64.24;100911.22;4810120;29;20520;-84
2021/11/13 06:31:02;;;;;;;3.85;1.75;;;;;;;17.35;64.46;100923.38;4828773;29;20026;-84
2021/11/13 06:33:49;;;;;;;2.78;1.13;;;;;;;17.36;64.22;100927.72;4827002;29;20027;-83
2021/11/13 06:39:58;;;;;;;2.35;1.30;;;;;;;17.37;64.40;100934.63;4828247;29;20042;-84
2021/11/13 06:49:48;;;;;;;2.60;1.40;;;;;;;17.37;64.30;100946.78;4827667;29;20199;-84
2021/11/13 06:52:27;;;;;;;2.55;1.35;;;;;;;17.35;64.16;100954.59;4815651;29;20049;-84
2021/11/13 06:54:55;;;;;;;3.08;1.50;;;;;;;17.35;64.33;100959.78;4847075;29;20121;-84
2021/11/13 07:20:38;;;;;;;9.90;4.05;;;;;;;17.47;64.24;100990.09;3985543;27;20058;-81
2021/11/13 07:23:16;;;;;;;15.25;4.30;;;;;;;17.46;64.10;100983.13;4837033;29;20114;-82
2021/11/13 07:25:41;;;;;;;9.70;4.07;;;;;;;17.46;63.97;100997.03;4837841;29;20062;-78
2021/11/13 07:28:13;;;;;;;11.68;4.45;;;;;;;17.47;63.94;101001.34;4837893;29;20072;-78
2021/11/13 07:30:42;;;;;;;11.80;3.92;;;;;;;17.50;63.71;101007.41;4826287;29;20090;-84
2021/11/13 08:12:05;;;;;;;6.80;2.90;;;;;;;17.81;63.54;101045.38;5707974;24;20058;-83
2021/11/13 08:32:38;;;;;;;5.35;2.80;;;;;;;17.98;63.13;101075.66;4849572;29;20041;-85
2021/11/13 08:38:34;;;;;;;8.80;2.70;;;;;;;18.00;63.10;101074.75;4846630;29;20075;-83
2021/11/13 08:41:19;;;;;;;5.63;2.63;;;;;;;18.02;63.04;101079.97;4838992;29;20027;-84
2021/11/13 08:43:52;;;;;;;5.05;2.50;;;;;;;18.01;63.30;101086.06;4847061;29;20030;-85
2021/11/13 08:46:19;;;;;;;5.88;2.70;;;;;;;18.01;63.18;101096.47;4844543;29;20014;-81
2021/11/13 08:48:46;;;;;;;5.18;2.67;;;;;;;18.04;62.91;101104.25;4841338;29;20073;-81
2021/11/13 08:51:13;;;;;;;5.60;2.67;;;;;;;18.06;63.01;101105.97;4842617;29;20010;-80
2021/11/13 08:53:39;;;;;;;4.70;2.30;;;;;;;18.07;62.82;101112.03;4837429;29;20030;-80
2021/11/13 08:56:04;;;;;;;3.95;2.35;;;;;;;18.04;63.28;101120.72;4837214;29;20034;-80
2021/11/13 08:58:31;;;;;;;6.18;2.30;;;;;;;18.05;62.97;101121.59;4835477;29;20038;-81
2021/11/13 09:01:01;;;;;;;5.32;1.98;;;;;;;18.06;63.01;101118.13;4804579;29;20126;-80
2021/11/13 09:03:32;;;;;;;5.15;2.60;;;;;;;18.09;62.96;101112.88;4834173;29;20023;-80
2021/11/13 09:06:02;;;;;;;7.28;2.65;;;;;;;18.14;62.66;101120.66;4820114;29;20495;-80
2021/11/13 09:08:27;;;;;;;4.55;2.10;;;;;;;18.16;63.01;101122.41;4834830;29;20034;-80
2021/11/13 09:10:59;;;;;;;3.70;2.10;;;;;;;18.17;62.71;101124.13;4819912;29;20054;-80
2021/11/13 09:13:27;;;;;;;5.13;2.35;;;;;;;18.21;62.76;101131.03;4804045;29;20034;-80
2021/11/13 09:15:54;;;;;;;5.30;2.20;;;;;;;18.19;62.54;101132.78;4833760;29;20026;-80
2021/11/13 09:18:20;;;;;;;4.63;2.17;;;;;;;18.19;62.60;101137.13;4833589;29;20391;-81
2021/11/13 09:20:47;;;;;;;6.78;2.03;;;;;;;18.18;62.47;101136.28;4817938;29;20179;-81
2021/11/13 09:23:13;;;;;;;5.43;2.10;;;;;;;18.17;62.77;101138.88;4832940;29;20038;-80
2021/11/13 09:25:41;;;;;;;4.93;2.05;;;;;;;18.14;62.76;101134.56;4817843;29;20040;-80
2021/11/13 09:28:07;;;;;;;3.88;2.05;;;;;;;18.12;62.86;101136.31;4820307;29;20042;-80
2021/11/13 09:30:36;;;;;;;3.42;1.85;;;;;;;18.11;63.07;101136.31;4816833;29;20114;-80
2021/11/13 09:33:04;;;;;;;3.63;2.20;;;;;;;18.08;63.15;101142.41;4834578;29;20031;-81
2021/11/13 09:35:32;;;;;;;6.38;2.20;;;;;;;18.04;63.15;101143.31;4835950;29;20036;-81
2021/11/13 09:37:58;;;;;;;4.55;2.45;;;;;;;18.04;63.10;101153.72;4836823;29;20034;-81
2021/11/13 09:40:27;;;;;;;4.15;2.42;;;;;;;18.01;63.37;101149.41;4837367;29;20059;-81
2021/11/13 09:42:58;;;;;;;6.28;2.53;;;;;;;18.01;63.30;101154.63;4838013;29;20055;-80
2021/11/13 09:45:25;;;;;;;5.30;2.33;;;;;;;18.01;63.00;101158.97;4837400;29;20040;-81
2021/11/13 09:47:53;;;;;;;5.57;2.60;;;;;;;18.01;63.27;101164.19;4835618;29;20053;-80
2021/11/13 09:50:22;;;;;;;4.22;2.63;;;;;;;18.01;63.14;101177.19;4834762;29;20042;-80
2021/11/13 09:52:48;;;;;;;5.93;2.72;;;;;;;18.01;63.24;101179.81;4836325;29;20030;-80
2021/11/13 09:55:18;;;;;;;4.75;2.80;;;;;;;18.00;63.07;101178.91;4835578;29;20030;-80
2021/11/13 09:57:46;;;;;;;5.82;2.88;;;;;;;18.05;63.06;101189.28;4834820;29;20026;-81
2021/11/13 10:00:17;;;;;;;4.25;2.28;;;;;;;18.04;62.87;101187.59;4816441;29;20030;-81
2021/11/13 10:02:43;;;;;;;4.75;2.80;;;;;;;18.08;62.88;101187.56;4831960;29;20038;-81
2021/11/13 10:05:10;;;;;;;7.90;3.00;;;;;;;18.11;62.79;101193.63;4800287;29;20030;-81
2021/11/13 10:07:36;;;;;;;3.97;2.38;;;;;;;18.07;62.72;101185.84;4833909;29;20031;-80
2021/11/13 10:10:07;;;;;;;4.78;2.40;;;;;;;18.08;63.07;101189.31;4831894;29;20030;-81
2021/11/13 10:12:44;;;;;;;3.40;2.40;;;;;;;18.04;63.03;101179.78;4816382;29;20046;-81
2021/11/13 10:15:47;;;;;;;4.25;2.70;;;;;;;18.03;63.11;101191.94;4832696;29;20105;-80
2021/11/13 10:18:31;;;;;;;5.18;2.80;;;;;;;18.03;63.10;101188.44;4835078;29;20026;-80
2021/11/13 10:20:56;;;;;;;4.90;2.50;;;;;;;18.03;63.11;101191.94;4833807;29;20034;-80
2021/11/13 10:37:05;;;;;;;4.45;2.80;;;;;;;18.06;62.96;101199.72;5002000;24;20124;-81
2021/11/13 10:39:38;;;;;;;3.30;2.33;;;;;;;18.12;62.78;101206.63;4815658;29;20041;-81
2021/11/13 10:42:06;;;;;;;;;;;;;;;18.12;62.63;101209.25;4816663;29;20513;-81
2021/11/13 10:44:49;;;;;;;4.60;2.30;;;;;;;18.09;62.89;101214.44;4812236;29;19924;-81
2021/11/13 10:47:39;;;;;;;4.72;2.45;;;;;;;18.06;62.91;101217.09;4811659;29;20122;-81
2021/11/13 10:50:20;;;;;;;4.43;2.25;;;;;;;18.05;62.98;101217.94;4813279;29;20531;-81
2021/11/13 10:53:12;;;;;;;3.75;2.47;;;;;;;18.08;62.80;101224.00;4813008;29;20037;-81
2021/11/13 10:55:40;;;;;;;4.05;2.50;;;;;;;18.09;62.80;101217.06;4798547;29;20037;-81
2021/11/13 10:58:42;;;;;;;5.30;2.10;;;;;;;18.10;62.83;101218.81;4813346;29;20388;-81
2021/11/13 11:01:24;;;;;;;4.45;2.63;;;;;;;18.07;62.92;101216.19;4812947;29;20113;-81
2021/11/13 11:03:51;;;;;;;3.90;2.20;;;;;;;18.06;62.95;101219.69;4814204;29;20037;-81
2021/11/13 11:06:23;;;;;;;4.30;2.28;;;;;;;18.02;62.61;101212.75;4799526;29;20031;-81
2021/11/13 11:08:49;;;;;;;4.28;2.33;;;;;;;18.01;62.82;101217.13;4800055;29;20090;-81
2021/11/13 11:11:36;;;;;;;4.45;2.40;;;;;;;18.01;63.05;101222.31;4784563;29;20437;-81
2021/11/13 11:14:05;;;;;;;4.28;2.08;;;;;;;18.00;62.98;101225.78;4815319;29;20072;-81
2021/11/13 11:16:37;;;;;;;4.10;2.50;;;;;;;18.02;62.77;101223.19;4814580;29;20058;-81
2021/11/13 11:19:09;;;;;;;3.33;2.10;;;;;;;18.02;62.77;101224.03;4798992;29;20034;-81
2021/11/13 11:21:45;;;;;;;3.38;2.05;;;;;;;18.02;62.68;101231.84;4815897;29;20042;-81
2021/11/13 11:24:42;;;;;;;4.22;2.20;;;;;;;18.05;62.38;101230.97;4813516;29;20038;-81
2021/11/13 11:27:34;;;;;;;3.75;2.10;;;;;;;18.09;62.52;101232.69;4811693;29;20042;-81
2021/11/13 11:30:10;;;;;;;4.85;2.15;;;;;;;18.09;62.76;101233.56;4815258;29;20041;-81
2021/11/13 11:32:58;;;;;;;3.08;2.08;;;;;;;18.06;62.50;101225.75;4815223;29;20115;-81
2021/11/13 11:35:28;;;;;;;2.58;2.03;;;;;;;18.06;62.60;101232.72;4798107;29;20058;-81
2021/11/13 11:37:55;;;;;;;3.25;2.20;;;;;;;18.08;62.44;101225.75;4814517;29;20053;-81
2021/11/13 11:40:32;;;;;;;4.07;2.22;;;;;;;18.09;62.47;101230.09;4814154;29;20031;-81
2021/11/13 11:42:59;;;;;;;4.97;2.33;;;;;;;18.15;62.48;101232.66;4814572;29;20030;-82
2021/11/13 11:45:28;;;;;;;3.45;2.10;;;;;;;18.19;62.35;101236.97;4814507;29;20031;-81
2021/11/13 11:47:55;;;;;;;2.72;1.80;;;;;;;18.18;62.34;101244.78;4815200;29;20485;-81
2021/11/13 11:50:26;;;;;;;4.22;1.65;;;;;;;18.16;62.38;101239.63;4801255;29;20468;-82
2021/11/13 11:52:56;;;;;;;3.47;1.95;;;;;;;18.10;62.47;101247.47;4800812;29;20035;-81
2021/11/13 11:55:22;;;;;;;3.17;2.03;;;;;;;18.06;62.49;101250.94;4817184;29;20480;-81
2021/11/13 11:57:56;;;;;;;3.63;2.10;;;;;;;18.04;62.50;101247.47;4814924;29;20029;-81
2021/11/13 12:00:26;;;;;;;3.65;2.00;;;;;;;18.03;62.50;101248.34;4816182;29;20026;-81
2021/11/13 12:02:54;;;;;;;3.65;1.95;;;;;;;18.01;62.44;101247.50;4813938;29;20381;-81
2021/11/13 12:05:25;;;;;;;3.17;2.10;;;;;;;18.02;62.60;101254.44;4797968;29;20035;-81
2021/11/13 12:07:52;;;;;;;2.92;1.73;;;;;;;18.02;62.65;101252.69;4813169;29;20023;-81
2021/11/13 12:10:30;;;;;;;2.78;1.70;;;;;;;18.04;62.41;101255.28;4814067;29;20045;-81
2021/11/13 12:13:10;;;;;;;3.38;1.95;;;;;;;18.06;62.35;101258.75;4801777;29;20492;-81
2021/11/13 12:16:06;;;;;;;3.10;1.85;;;;;;;18.03;62.55;101261.34;4818137;29;20035;-82
2021/11/13 12:18:43;;;;;;;3.20;1.90;;;;;;;18.05;62.34;101264.81;4817520;29;20086;-81
2021/11/13 12:21:08;;;;;;;3.65;1.80;;;;;;;18.05;62.35;101262.22;4789049;29;20043;-81
2021/11/13 12:23:38;;;;;;;2.53;1.70;;;;;;;18.05;62.49;101270.03;4818949;29;20038;-81
2021/11/13 12:26:25;;;;;;;3.65;1.80;;;;;;;18.05;62.49;101276.13;4817619;29;20035;-81
2021/11/13 12:28:56;;;;;;;3.53;1.70;;;;;;;18.07;62.34;101268.28;4813245;29;20400;-79
2021/11/13 12:31:29;;;;;;;3.25;1.80;;;;;;;18.05;62.23;101275.25;4815973;29;20050;-81
2021/11/13 12:33:57;;;;;;;3.08;1.90;;;;;;;18.02;62.47;101272.66;4816711;29;20056;-81
2021/11/13 12:37:00;;;;;;;3.05;1.90;;;;;;;18.00;62.56;101279.63;4815118;29;20070;-80
2021/11/13 12:40:19;;;;;;;5.63;1.85;;;;;;;17.99;62.64;101288.31;4823359;29;20103;-86
2021/11/13 12:46:45;;;;;;;2.45;1.60;;;;;;;18.08;62.31;101288.28;4832516;29;20045;-86
2021/11/13 12:54:51;;;;;;;4.93;1.63;;;;;;;18.15;62.74;101289.09;4835042;29;20050;-81
2021/11/13 12:57:26;;;;;;;6.97;1.90;;;;;;;18.13;62.58;101303.88;4817633;29;20383;-80
2021/11/13 12:59:58;;;;;;;5.90;1.90;;;;;;;18.09;62.71;101303.00;4832897;29;20086;-79
2021/11/13 13:02:26;;;;;;;6.63;1.65;;;;;;;18.06;62.87;101303.03;4827920;29;20049;-80
2021/11/13 13:04:52;;;;;;;3.95;1.70;;;;;;;18.05;62.68;101315.19;4797839;29;20042;-80
2021/11/13 13:07:18;;;;;;;5.53;1.88;;;;;;;18.05;62.93;101317.78;4830827;29;20030;-81
2021/11/13 13:10:01;;;;;;;4.88;1.90;;;;;;;18.05;62.69;101311.69;4803443;29;20034;-81
2021/11/13 13:12:38;;;;;;;3.40;1.73;;;;;;;18.05;62.59;101314.31;4818701;29;20049;-81
2021/11/13 13:15:30;;;;;;;3.40;1.58;;;;;;;18.04;62.88;101326.47;4835938;29;20119;-81
2021/11/13 13:17:55;;;;;;;4.43;1.77;;;;;;;18.04;62.95;101323.00;4835965;29;20096;-81
2021/11/13 13:20:39;;;;;;;2.55;1.52;;;;;;;18.00;63.02;101322.13;4832959;29;20027;-81
2021/11/13 13:23:17;;;;;;;3.75;1.60;;;;;;;17.99;62.79;101325.63;4823485;29;20181;-80
2021/11/13 13:26:18;;;;;;;5.20;2.00;;;;;;;17.99;62.87;101324.78;4838166;29;20034;-80
2021/11/13 13:28:43;;;;;;;3.38;1.48;;;;;;;18.00;62.86;101329.94;4838891;29;20049;-81
2021/11/13 13:31:23;;;;;;;3.17;1.73;;;;;;;17.97;63.10;101329.97;4837626;29;20039;-80
2021/11/13 13:34:50;;;;;;;3.40;1.77;;;;;;;17.97;62.84;101335.19;4841291;29;20030;-82
2021/11/13 13:37:21;;;;;;;5.50;1.80;;;;;;;17.98;62.91;101341.25;4845992;29;20071;-83
2021/11/13 13:43:28;;;;;;;4.28;1.40;;;;;;;17.97;63.23;101342.13;4837710;29;20096;-80
2021/11/13 13:45:56;;;;;;;6.03;1.60;;;;;;;17.95;63.10;101336.94;4832175;29;20066;-81
2021/11/13 13:48:38;;;;;;;3.00;1.48;;;;;;;17.97;63.12;101342.13;4833606;29;20034;-81
2021/11/13 13:51:10;;;;;;;6.63;1.55;;;;;;;17.96;62.89;101341.25;4814726;29;20030;-80
2021/11/13 13:53:58;;;;;;;5.60;1.77;;;;;;;17.96;63.00;101345.59;4818351;29;20126;-80
2021/11/13 13:56:44;;;;;;;4.68;1.45;;;;;;;17.98;63.20;101343.84;4814601;29;20054;-81
2021/11/13 13:59:33;;;;;;;2.08;1.40;;;;;;;17.98;62.92;101359.47;4818944;29;20023;-81
2021/11/13 14:02:08;;;;;;;14.70;1.48;;;;;;;17.97;62.99;101357.75;4819000;29;20037;-81
2021/11/13 14:04:48;;;;;;;4.28;1.80;;;;;;;17.96;63.00;101362.06;4817324;29;20050;-81
2021/11/13 14:07:20;;;;;;;3.65;1.40;;;;;;;17.97;63.13;101358.63;4800746;29;20095;-81
2021/11/13 14:09:57;;;;;;;4.32;1.35;;;;;;;17.94;63.13;101356.00;4813085;29;20220;-81
2021/11/13 14:12:23;;;;;;;2.22;1.30;;;;;;;17.95;63.03;101362.09;4810978;29;20034;-80
2021/11/13 14:14:49;;;;;;;1.80;1.27;;;;;;;17.95;62.87;101362.09;4809386;29;20047;-80
2021/11/13 14:17:19;;;;;;;3.40;1.50;;;;;;;17.95;63.21;101364.72;4795221;29;20099;-79
2021/11/13 14:19:45;;;;;;;3.67;1.63;;;;;;;17.94;63.15;101366.41;4811091;29;20035;-79
2021/11/13 14:22:11;;;;;;;3.60;1.25;;;;;;;17.96;63.09;101363.81;4810667;29;20027;-80
2021/11/13 14:24:36;;;;;;;4.43;1.42;;;;;;;17.96;63.11;101371.63;4811375;29;20042;-80
2021/11/13 14:27:14;;;;;;;3.25;1.30;;;;;;;17.96;62.92;101371.63;4779180;29;20062;-80
2021/11/13 14:29:42;;;;;;;2.70;1.70;;;;;;;17.96;63.01;101376.84;4808522;29;20042;-79
2021/11/13 14:32:17;;;;;;;3.58;1.33;;;;;;;17.96;62.95;101379.44;4793448;29;20587;-79
2021/11/13 14:34:44;;;;;;;1.98;1.15;;;;;;;17.94;63.10;101383.78;4808553;29;20034;-79
2021/11/13 14:37:13;;;;;;;2.40;1.38;;;;;;;17.93;62.94;101376.84;4794376;29;20035;-79
2021/11/13 14:39:42;;;;;;;4.35;1.38;;;;;;;17.93;63.03;101379.47;4808931;29;20034;-79
2021/11/13 14:42:14;;;;;;;2.30;1.17;;;;;;;17.94;63.18;101378.59;4793924;29;20038;-78
2021/11/13 14:44:49;;;;;;;4.47;1.30;;;;;;;17.91;63.12;101397.69;4794830;29;20035;-78
2021/11/13 14:47:17;;;;;;;2.05;1.20;;;;;;;17.92;63.29;101390.72;4818326;29;20086;-83
2021/11/13 14:49:56;;;;;;;2.05;1.25;;;;;;;17.90;62.97;101398.56;4813365;29;20027;-82
2021/11/13 14:52:35;;;;;;;1.48;1.00;;;;;;;17.91;63.12;101402.91;4829005;29;20031;-83
2021/11/13 14:55:12;;;;;;;2.53;1.23;;;;;;;17.91;63.17;101407.25;4810386;29;20034;-82
2021/11/13 14:57:45;;;;;;;3.33;1.40;;;;;;;17.91;63.06;101417.66;4811314;29;20084;-83
2021/11/13 15:00:27;;;;;;;3.60;1.27;;;;;;;17.91;63.25;101415.06;4828663;29;20015;-84
2021/11/13 15:03:03;;;;;;;3.00;1.40;;;;;;;17.91;62.97;101420.25;4829190;29;20031;-84
2021/11/13 15:05:29;;;;;;;3.25;1.50;;;;;;;17.89;63.07;101417.66;4829932;29;20018;-84
2021/11/13 15:07:55;;;;;;;3.97;1.70;;;;;;;17.89;62.99;101415.03;4814493;29;20024;-84
2021/11/13 15:10:21;;;;;;;3.92;1.23;;;;;;;17.88;62.94;101415.94;4830301;29;20039;-83
2021/11/13 15:12:46;;;;;;;2.85;1.30;;;;;;;17.89;63.15;101422.84;4829572;29;20019;-83
2021/11/13 15:15:14;;;;;;;2.55;1.20;;;;;;;17.88;62.83;101423.75;4814190;29;20035;-84
2021/11/13 15:17:42;;;;;;;2.05;1.10;;;;;;;17.86;62.92;101422.88;4829609;29;20015;-83
2021/11/13 15:20:21;;;;;;;3.42;1.30;;;;;;;17.87;63.23;101432.41;4829162;29;20027;-82
2021/11/13 15:22:56;;;;;;;3.17;1.48;;;;;;;17.86;63.07;101434.16;4828536;29;20022;-83
2021/11/13 15:25:25;;;;;;;2.92;1.40;;;;;;;17.85;63.20;101426.34;4828820;29;20073;-82
2021/11/13 15:28:15;;;;;;;2.38;1.20;;;;;;;17.84;63.23;101433.28;4829044;29;20039;-82
2021/11/13 15:31:02;;;;;;;2.72;1.30;;;;;;;17.84;63.06;101437.63;4823226;29;20098;-83
2021/11/13 15:37:34;;;;;;;3.10;1.15;;;;;;;17.88;63.08;101447.19;4827585;29;20068;-83
2021/11/13 15:40:14;;;;;;;5.13;1.67;;;;;;;17.89;63.13;101451.50;4824074;29;20030;-81
2021/11/13 15:42:43;;;;;;;2.78;1.20;;;;;;;17.88;62.94;101462.78;4788652;29;20450;-83
2021/11/13 15:45:14;;;;;;;3.95;1.75;;;;;;;17.86;63.12;101457.59;4808876;29;20038;-80
2021/11/13 15:51:11;;;;;;;4.65;1.33;;;;;;;17.88;62.90;101465.41;4819790;29;20069;-81
2021/11/13 15:53:47;;;;;;;4.30;1.40;;;;;;;17.88;63.04;101465.41;4819254;29;20497;-81
2021/11/13 15:56:51;;;;;;;2.28;1.08;;;;;;;17.89;63.07;101473.19;4806375;29;20047;-81
2021/11/13 16:00:02;;;;;;;2.85;1.08;;;;;;;17.91;62.98;101468.00;4785987;30;20130;-81
2021/11/13 16:02:28;;;;;;;3.67;1.33;;;;;;;17.89;63.13;101473.19;4782026;30;20138;-81
2021/11/13 16:04:53;;;;;;;5.43;1.35;;;;;;;17.89;63.18;101473.19;4781958;30;20036;-81
2021/11/13 16:07:29;;;;;;;2.42;1.20;;;;;;;17.89;62.76;101473.19;4788066;30;20047;-81
2021/11/13 16:10:15;;;;;;;5.30;1.40;;;;;;;17.92;63.10;101474.94;4786565;30;20043;-82
2021/11/13 16:12:50;;;;;;;2.97;1.30;;;;;;;17.91;62.96;101481.00;4772617;30;20040;-81
2021/11/13 16:15:16;;;;;;;2.42;1.25;;;;;;;17.91;63.22;101481.00;4786726;30;20097;-81
2021/11/13 16:17:54;;;;;;;2.75;1.30;;;;;;;17.93;63.10;101476.66;4791025;30;20074;-81
2021/11/13 16:24:09;;;;;;;2.80;1.10;;;;;;;17.94;63.28;101491.41;4780387;30;20198;-82
2021/11/13 16:27:00;;;;;;;2.05;0.90;;;;;;;17.95;63.15;101495.75;4793311;30;20046;-83
2021/11/13 16:29:27;;;;;;;2.05;0.90;;;;;;;17.94;63.00;101499.22;4793567;29;20039;-80
2021/11/13 16:31:52;;;;;;;2.30;1.00;;;;;;;17.96;63.16;101501.84;4809666;29;20031;-80
2021/11/13 16:34:18;;;;;;;3.45;1.20;;;;;;;17.96;63.39;101504.44;4795893;29;20046;-80
2021/11/13 16:37:40;;;;;;;1.98;1.10;;;;;;;17.97;63.10;101509.66;4798270;29;20050;-82
2021/11/13 16:40:08;;;;;;;3.10;1.50;;;;;;;17.97;63.23;101508.78;4825544;29;20106;-82
2021/11/13 16:47:55;;;;;;;2.42;1.20;;;;;;;17.97;63.24;101514.00;5034145;24;20069;-82
2021/11/13 16:50:21;;;;;;;2.67;1.20;;;;;;;17.98;63.25;101513.97;4826358;29;20056;-82
2021/11/13 16:52:46;;;;;;;2.58;1.17;;;;;;;17.99;63.59;101522.69;4823374;29;20104;-81
2021/11/13 16:55:42;;;;;;;3.50;1.15;;;;;;;17.99;63.50;101523.53;4907434;24;20066;-84
2021/11/13 16:58:36;;;;;;;2.50;1.20;;;;;;;17.97;63.36;101529.63;4825767;29;20023;-84
2021/11/13 17:01:05;;;;;;;3.53;1.30;;;;;;;17.96;63.32;101528.72;4820629;29;20045;-84
2021/11/13 17:03:34;;;;;;;2.55;1.20;;;;;;;17.97;63.22;101533.09;4815541;29;20039;-84
2021/11/13 17:06:11;;;;;;;3.63;1.20;;;;;;;17.97;63.46;101534.84;4795673;29;20067;-84
2021/11/13 17:08:47;;;;;;;3.03;1.08;;;;;;;17.97;63.20;101542.66;4824589;29;20095;-84
2021/11/13 17:11:15;;;;;;;2.25;1.08;;;;;;;17.96;63.29;101543.50;4796264;29;20031;-84
2021/11/13 17:13:58;;;;;;;2.33;1.10;;;;;;;17.95;63.17;101541.78;4792419;30;20043;-83
2021/11/13 17:16:38;;;;;;;2.35;1.00;;;;;;;17.94;63.36;101540.03;4792698;29;20053;-83
2021/11/13 17:28:40;;;;;;;3.28;1.20;;;;;;;17.93;63.21;101562.59;4841321;24;20045;-81
2021/11/13 17:31:45;;;;;;;2.80;1.42;;;;;;;17.93;63.26;101566.94;4813968;29;20018;-84
2021/11/13 17:39:32;;;;;;;3.08;1.30;;;;;;;17.93;63.26;101565.19;4809254;29;20029;-81
2021/11/13 17:42:21;;;;;;;3.30;1.50;;;;;;;17.93;63.27;101573.00;4821388;29;20042;-82
2021/11/13 17:44:47;;;;;;;3.80;1.30;;;;;;;17.92;63.22;101571.28;4821590;29;20042;-82
2021/11/13 17:47:34;;;;;;;2.38;1.40;;;;;;;17.94;63.26;101587.75;4822642;29;20033;-81
2021/11/13 17:50:14;;;;;;;2.13;1.33;;;;;;;17.93;63.36;101582.56;4816743;29;20488;-82
2021/11/13 17:53:16;;;;;;;3.20;1.40;;;;;;;17.92;63.21;101586.91;4827303;29;20121;-81
2021/11/13 17:55:43;;;;;;;3.20;1.35;;;;;;;17.94;63.26;101594.72;4780992;30;20047;-81
2021/11/13 17:58:09;;;;;;;4.15;1.45;;;;;;;18.01;63.56;101589.53;4775317;30;20146;-79
2021/11/13 18:00:38;;;;;;;5.32;1.70;;;;;;;18.12;64.18;101597.34;4760965;30;20031;-80
2021/11/13 18:03:06;;;;;;;6.47;1.92;;;;;;;18.01;67.60;101601.69;4772662;30;20135;-77
2021/11/13 18:05:32;;;;;;;16.63;1.98;;;;;;;17.76;71.27;101600.72;4756671;30;20036;-80
2021/11/13 18:07:57;;;;;;;7.82;2.03;;;;;;;17.96;69.73;101612.06;4780877;30;20043;-78
2021/11/13 18:10:26;;;;;;;6.03;2.08;;;;;;;17.79;71.56;101619.84;4759597;30;20053;-80
2021/11/13 18:12:53;;;;;;;7.10;2.03;;;;;;;17.68;70.48;101616.31;4776823;30;20048;-80
2021/11/13 18:15:20;;;;;;;7.97;2.67;;;;;;;17.61;68.84;101619.78;4760859;30;20032;-82
2021/11/13 18:17:49;;;;;;;6.70;2.42;;;;;;;17.56;67.57;101619.78;4785008;30;20023;-81
2021/11/13 18:25:57;;;;;;;9.18;3.55;;;;;;;17.43;68.65;101626.66;5126590;24;20092;-82
2021/11/13 18:28:23;;;;;;;9.77;3.63;;;;;;;17.42;68.14;101629.25;4837489;29;20081;-80
2021/11/13 18:30:50;;;;;;;6.75;3.40;;;;;;;17.42;68.09;101635.34;4840071;29;20042;-82
2021/11/13 18:36:23;;;;;;;6.20;3.33;;;;;;;17.40;68.10;101636.22;4846872;29;20046;-82
2021/11/13 18:46:13;;;;;;;9.88;4.00;;;;;;;17.37;68.68;101650.06;4848085;29;20034;-83
2021/11/13 18:49:31;;;;;;;7.10;3.83;;;;;;;17.38;68.77;101649.19;4811953;29;20043;-83
2021/11/13 18:55:41;;;;;;;7.10;3.30;;;;;;;17.36;68.78;101647.47;4810770;29;20030;-83
2021/11/13 18:58:46;;;;;;;5.32;3.13;;;;;;;17.36;68.57;101658.72;4783230;30;20048;-82
2021/11/13 19:01:31;;;;;;;5.57;3.30;;;;;;;17.37;68.87;101654.41;4808756;30;20047;-82
2021/11/13 19:07:22;;;;;;;6.50;3.17;;;;;;;17.33;69.27;101661.31;4760828;30;20039;-82
2021/11/13 19:09:48;;;;;;;5.35;3.28;;;;;;;17.31;69.09;101663.06;4768399;30;20064;-81
2021/11/13 19:12:22;;;;;;;7.07;3.10;;;;;;;17.32;68.81;101659.56;4766420;30;20044;-80
2021/11/13 19:14:58;;;;;;;6.45;3.25;;;;;;;17.34;69.33;101668.25;4769790;30;20055;-82
2021/11/13 19:22:42;;;;;;;7.03;3.42;;;;;;;17.32;69.26;101669.97;3923271;27;20059;-84
2021/11/13 19:25:51;;;;;;;8.88;2.80;;;;;;;17.33;68.68;101674.31;4792786;30;20031;-83
2021/11/13 19:28:22;;;;;;;6.95;2.90;;;;;;;17.32;68.71;101680.38;4807036;30;20096;-84
2021/11/13 19:31:10;;;;;;;6.45;2.80;;;;;;;17.33;68.93;101678.66;4809605;30;20031;-83
2021/11/13 19:34:01;;;;;;;8.02;3.00;;;;;;;17.32;68.89;101690.78;4809186;29;20031;-85
2021/11/13 19:36:34;;;;;;;6.55;2.88;;;;;;;17.31;68.68;101685.56;4795907;30;20059;-84
2021/11/13 19:39:28;;;;;;;5.13;2.60;;;;;;;17.31;68.58;101677.78;4753497;30;20033;-86
2021/11/13 19:41:55;;;;;;;6.35;2.95;;;;;;;17.30;68.79;101682.13;4770058;30;20031;-83
2021/11/13 19:44:28;;;;;;;5.43;2.75;;;;;;;17.30;68.79;101682.13;4756785;30;20025;-84
2021/11/13 19:46:58;;;;;;;4.68;2.10;;;;;;;17.28;68.56;101674.28;4768790;30;20048;-82
2021/11/13 19:52:49;;;;;;;4.55;2.60;;;;;;;17.29;68.38;101683.00;4775911;30;20043;-85
2021/11/13 19:55:37;;;;;;;7.75;2.95;;;;;;;17.26;69.23;101670.81;4775419;30;20060;-86
2021/11/13 19:58:41;;;;;;;3.80;2.45;;;;;;;17.28;68.63;101681.22;4760485;30;20036;-85
2021/11/13 20:01:08;;;;;;;5.22;2.70;;;;;;;17.28;68.65;101684.69;4758000;30;20036;-82
2021/11/13 20:03:42;;;;;;;5.65;2.92;;;;;;;17.28;68.75;101687.28;4754124;30;20033;-79
2021/11/13 20:06:46;;;;;;;4.50;2.47;;;;;;;17.30;68.47;101695.13;4756185;30;20052;-81
2021/11/13 20:09:11;;;;;;;5.57;2.65;;;;;;;17.30;69.00;101696.84;4769929;30;20063;-81
2021/11/13 20:11:38;;;;;;;7.30;2.83;;;;;;;17.31;68.47;101703.78;4764054;30;20040;-81